Time;durP1;ratioP1;P1;durP2;ratioP2;P2;SDS_P1;SDS_P2;PMS_P1;PMS_P2;Temp;Humidity;BMP_temperature;BMP_pressure;BME280_temperature;BME280_humidity;BME280_pressure;Samples;Min_cycle;Max_cycle;Signal;HPM_P1;HPM_P2
2022/08/31 00:04:12;;;;;;;12.68;11.82;;;19.90;99.90;;;;;;5008348;28;20188;-78
2022/08/31 00:06:39;;;;;;;9.23;8.43;;;19.80;99.90;;;;;;5012308;28;20211;-81
2022/08/31 00:09:05;;;;;;;7.83;7.30;;;19.80;99.90;;;;;;5004316;28;20185;-81
2022/08/31 00:11:34;;;;;;;7.72;7.03;;;19.80;99.90;;;;;;5006029;28;20240;-79
2022/08/31 00:14:05;;;;;;;23.90;21.93;;;19.70;99.90;;;;;;5006654;28;20187;-79
2022/08/31 00:16:35;;;;;;;26.17;24.47;;;19.80;99.90;;;;;;5005970;28;20199;-77
2022/08/31 00:19:01;;;;;;;31.23;29.57;;;19.80;99.90;;;;;;5008304;28;20254;-78
2022/08/31 00:21:27;;;;;;;34.50;32.53;;;19.80;99.90;;;;;;5007269;28;20203;-79
2022/08/31 00:23:54;;;;;;;37.83;35.37;;;19.80;99.90;;;;;;5007300;28;20180;-80
2022/08/31 00:26:21;;;;;;;32.97;31.07;;;19.80;99.90;;;;;;5006868;28;20203;-78
2022/08/31 00:28:48;;;;;;;35.57;33.33;;;19.80;99.90;;;;;;5005596;28;20270;-79
2022/08/31 00:31:15;;;;;;;34.70;32.80;;;19.80;99.90;;;;;;5004796;28;20232;-78
2022/08/31 00:33:41;;;;;;;31.27;29.37;;;19.90;99.90;;;;;;5005565;28;20194;-77
2022/08/31 00:36:11;;;;;;;34.27;32.37;;;19.80;99.90;;;;;;5004554;28;20188;-79
2022/08/31 00:38:38;;;;;;;32.93;31.17;;;19.90;99.90;;;;;;5002666;28;20211;-78
2022/08/31 00:41:04;;;;;;;33.60;31.67;;;19.80;99.90;;;;;;5004657;28;20200;-77
2022/08/31 00:43:43;;;;;;;33.50;31.70;;;19.80;99.90;;;;;;5006742;28;20195;-78
2022/08/31 00:46:11;;;;;;;33.83;31.97;;;19.80;99.90;;;;;;5008201;28;20188;-77
2022/08/31 00:48:44;;;;;;;15.63;14.53;;;19.80;99.90;;;;;;5006416;28;20184;-78
2022/08/31 00:51:11;;;;;;;8.65;7.95;;;19.80;99.90;;;;;;5006836;28;20303;-79
2022/08/31 00:53:37;;;;;;;19.70;18.45;;;19.80;99.90;;;;;;5005971;28;20263;-79
2022/08/31 00:56:03;;;;;;;32.10;30.15;;;19.90;99.90;;;;;;5005077;28;20188;-77
2022/08/31 00:58:29;;;;;;;31.67;29.87;;;19.90;99.90;;;;;;5001448;28;20235;-77
2022/08/31 01:00:58;;;;;;;36.20;34.13;;;20.00;99.90;;;;;;4982308;28;20212;-77
2022/08/31 01:03:24;;;;;;;17.67;16.50;;;20.00;99.90;;;;;;4985077;28;20209;-76
2022/08/31 01:05:51;;;;;;;10.15;9.48;;;20.00;99.90;;;;;;4971530;28;20193;-79
2022/08/31 01:08:17;;;;;;;7.73;7.13;;;19.90;99.90;;;;;;4987180;28;20181;-78
2022/08/31 01:10:44;;;;;;;10.80;10.00;;;19.90;99.90;;;;;;4986566;28;20573;-79
2022/08/31 01:13:13;;;;;;;12.17;11.03;;;19.80;99.90;;;;;;4969984;28;20204;-80
2022/08/31 01:15:47;;;;;;;14.97;13.37;;;19.80;99.90;;;;;;5001119;28;20679;-78
2022/08/31 01:18:17;;;;;;;28.67;26.70;;;19.70;99.90;;;;;;5005412;28;20218;-79
2022/08/31 01:21:26;;;;;;;28.20;26.63;;;19.70;99.90;;;;;;5004944;28;20211;-79
2022/08/31 01:23:59;;;;;;;29.87;28.20;;;19.70;99.90;;;;;;4977340;28;20242;-78
2022/08/31 01:26:27;;;;;;;35.50;33.30;;;19.70;99.90;;;;;;4994450;28;20646;-76
2022/08/31 01:28:57;;;;;;;36.93;34.93;;;19.70;99.90;;;;;;5010493;28;20192;-77
2022/08/31 01:31:27;;;;;;;31.77;29.90;;;19.80;99.90;;;;;;5009886;28;20239;-78
2022/08/31 01:33:53;;;;;;;17.30;16.03;;;19.80;99.90;;;;;;5004987;28;20203;-77
2022/08/31 01:36:20;;;;;;;9.60;8.90;;;19.80;99.90;;;;;;5008096;28;20210;-80
2022/08/31 01:38:46;;;;;;;32.87;30.77;;;19.90;99.90;;;;;;5003543;28;20200;-77
2022/08/31 01:41:13;;;;;;;40.00;37.83;;;20.10;99.90;;;;;;5004777;28;20200;-80
2022/08/31 01:43:39;;;;;;;38.92;36.70;;;20.30;99.90;;;;;;5005064;28;20183;-78
2022/08/31 01:46:08;;;;;;;44.45;41.92;;;20.30;99.90;;;;;;5002587;28;20177;-78
2022/08/31 01:48:35;;;;;;;36.65;34.35;;;20.30;99.90;;;;;;5003772;28;20653;-77
2022/08/31 01:51:02;;;;;;;31.05;29.27;;;20.30;99.90;;;;;;5007562;28;20233;-77
2022/08/31 01:53:28;;;;;;;34.72;32.78;;;20.30;99.90;;;;;;5009552;28;20195;-79
2022/08/31 01:55:54;;;;;;;25.27;23.70;;;20.30;99.90;;;;;;5003736;28;20334;-78
2022/08/31 01:58:20;;;;;;;23.77;22.37;;;20.30;99.90;;;;;;5003680;28;20204;-79
2022/08/31 02:00:46;;;;;;;22.85;21.50;;;20.30;99.90;;;;;;5002963;28;20270;-77
2022/08/31 02:03:12;;;;;;;23.55;22.00;;;20.30;99.90;;;;;;5004249;28;20189;-78
2022/08/31 02:05:38;;;;;;;29.60;27.77;;;20.30;99.90;;;;;;5003413;28;20248;-79
2022/08/31 02:08:26;;;;;;;27.15;25.52;;;20.30;99.90;;;;;;4983424;28;20180;-77
2022/08/31 02:10:54;;;;;;;36.80;34.63;;;20.40;99.90;;;;;;5003237;28;20295;-77
2022/08/31 02:13:20;;;;;;;42.33;40.05;;;20.40;99.90;;;;;;5002879;28;20181;-77
2022/08/31 02:15:46;;;;;;;41.03;38.72;;;20.50;99.90;;;;;;4997671;28;20184;-78
2022/08/31 02:18:12;;;;;;;40.23;37.73;;;20.50;99.90;;;;;;4994433;28;20610;-75
2022/08/31 02:20:38;;;;;;;34.53;32.50;;;20.60;99.90;;;;;;5003592;28;20200;-77
2022/08/31 02:23:04;;;;;;;24.80;23.27;;;20.50;99.90;;;;;;5003587;28;20200;-77
2022/08/31 02:25:30;;;;;;;44.07;41.50;;;20.50;99.90;;;;;;5006715;28;20218;-79
2022/08/31 02:27:57;;;;;;;32.03;30.13;;;20.50;99.90;;;;;;5003249;28;20251;-79
2022/08/31 02:30:23;;;;;;;16.08;14.70;;;20.40;99.90;;;;;;5003656;28;20693;-79
2022/08/31 02:32:48;;;;;;;8.50;7.78;;;20.40;99.90;;;;;;5003093;28;20191;-79
2022/08/31 02:35:14;;;;;;;15.03;13.93;;;20.30;99.90;;;;;;5003786;28;20645;-78
2022/08/31 02:37:40;;;;;;;25.60;24.00;;;20.30;99.90;;;;;;5003649;28;20207;-77
2022/08/31 02:40:08;;;;;;;29.47;27.57;;;20.20;99.90;;;;;;5000877;28;20280;-78
2022/08/31 02:42:34;;;;;;;37.00;34.90;;;20.20;99.90;;;;;;5016434;28;20735;-79
2022/08/31 02:45:00;;;;;;;39.10;37.00;;;20.10;99.90;;;;;;5003103;28;20227;-79
2022/08/31 02:47:29;;;;;;;39.67;37.27;;;20.10;99.90;;;;;;5003787;28;20176;-78
2022/08/31 02:49:55;;;;;;;39.90;37.63;;;20.00;99.90;;;;;;5004985;28;20209;-77
2022/08/31 02:52:20;;;;;;;38.77;36.80;;;20.00;99.90;;;;;;5004869;28;20192;-80
2022/08/31 02:54:46;;;;;;;33.97;31.63;;;20.00;99.90;;;;;;5003024;28;20192;-77
2022/08/31 02:57:12;;;;;;;28.57;26.63;;;20.00;99.90;;;;;;5002793;28;20219;-78
2022/08/31 02:59:38;;;;;;;42.57;39.87;;;19.90;99.90;;;;;;5005089;28;20238;-80
2022/08/31 03:02:04;;;;;;;54.70;51.13;;;19.90;99.90;;;;;;5003016;28;20180;-78
2022/08/31 03:04:30;;;;;;;84.50;80.00;;;19.90;99.90;;;;;;5012718;28;20193;-77
2022/08/31 03:06:55;;;;;;;128.80;122.10;;;19.90;99.90;;;;;;5009102;28;20180;-78
2022/08/31 03:09:22;;;;;;;168.93;160.43;;;19.80;99.90;;;;;;5011331;28;20238;-79
2022/08/31 03:11:48;;;;;;;226.07;214.43;;;19.80;99.90;;;;;;5008603;28;20299;-80
2022/08/31 03:14:14;;;;;;;228.70;217.33;;;19.80;99.90;;;;;;5012560;28;20188;-77
2022/08/31 03:16:41;;;;;;;221.17;210.30;;;19.80;99.90;;;;;;5012996;28;20198;-76
2022/08/31 03:19:08;;;;;;;233.47;222.10;;;19.80;99.90;;;;;;5012106;28;20212;-77
2022/08/31 03:21:34;;;;;;;215.40;204.77;;;19.80;99.90;;;;;;5008045;28;20204;-79
2022/08/31 03:24:00;;;;;;;149.53;141.77;;;19.80;99.90;;;;;;5008380;28;20211;-77
2022/08/31 03:26:26;;;;;;;79.43;75.10;;;19.80;99.90;;;;;;5012311;28;20192;-77
2022/08/31 03:28:54;;;;;;;42.10;39.60;;;19.70;99.90;;;;;;5013284;28;20192;-77
2022/08/31 03:31:21;;;;;;;25.67;24.13;;;19.70;99.90;;;;;;5015298;28;20200;-77
2022/08/31 03:33:47;;;;;;;14.20;13.27;;;19.70;99.90;;;;;;5012711;28;20180;-80
2022/08/31 03:36:14;;;;;;;11.90;11.07;;;19.60;99.90;;;;;;5010294;28;20195;-80
2022/08/31 03:38:41;;;;;;;10.37;9.33;;;19.60;99.90;;;;;;4994004;28;20212;-77
2022/08/31 03:41:07;;;;;;;9.67;8.67;;;19.60;99.90;;;;;;5008777;28;20751;-79
2022/08/31 03:43:35;;;;;;;13.50;12.50;;;19.60;99.90;;;;;;5000561;28;20181;-79
2022/08/31 03:46:03;;;;;;;19.50;18.10;;;19.60;99.90;;;;;;5001104;28;20183;-79
2022/08/31 03:48:29;;;;;;;33.07;31.13;;;19.60;99.90;;;;;;5001573;28;20275;-79
2022/08/31 03:50:55;;;;;;;42.73;40.30;;;19.60;99.90;;;;;;4999883;28;20212;-81
2022/08/31 03:53:21;;;;;;;37.80;35.53;;;19.50;99.90;;;;;;4997988;28;20192;-80
2022/08/31 03:55:47;;;;;;;48.83;46.00;;;19.50;99.90;;;;;;4978713;28;20184;-81
2022/08/31 03:58:13;;;;;;;72.97;68.93;;;19.50;99.90;;;;;;4996479;28;20188;-79
2022/08/31 04:00:41;;;;;;;96.50;91.37;;;19.50;99.90;;;;;;4996337;28;20258;-82
2022/08/31 04:03:07;;;;;;;163.37;155.07;;;19.40;99.90;;;;;;4996485;28;20181;-80
2022/08/31 04:05:40;;;;;;;169.80;161.13;;;19.40;99.90;;;;;;4996754;28;20262;-81
2022/08/31 04:08:06;;;;;;;209.57;198.23;;;19.40;99.90;;;;;;4995496;28;20180;-80
2022/08/31 04:10:32;;;;;;;380.93;359.70;;;19.40;99.90;;;;;;4995546;28;20692;-80
2022/08/31 04:12:58;;;;;;;374.57;354.07;;;19.40;99.90;;;;;;4996474;28;20528;-79
2022/08/31 04:15:23;;;;;;;345.90;327.33;;;19.30;99.90;;;;;;4995186;28;20181;-79
2022/08/31 04:17:50;;;;;;;160.07;151.53;;;19.30;99.90;;;;;;4993224;28;20716;-81
2022/08/31 04:20:16;;;;;;;96.10;90.60;;;19.30;99.90;;;;;;4994259;28;20243;-79
2022/08/31 04:22:42;;;;;;;72.63;68.10;;;19.30;99.90;;;;;;4995541;28;20188;-79
2022/08/31 04:25:09;;;;;;;29.57;27.50;;;19.20;99.90;;;;;;4995437;28;20247;-80
2022/08/31 04:27:36;;;;;;;23.43;21.43;;;19.20;99.90;;;;;;4994804;28;20267;-80
2022/08/31 04:30:04;;;;;;;17.73;16.53;;;19.20;99.90;;;;;;4995474;28;20199;-82
2022/08/31 04:32:30;;;;;;;16.73;15.23;;;19.20;99.90;;;;;;4992853;28;20188;-80
2022/08/31 04:34:56;;;;;;;14.23;13.13;;;19.20;99.90;;;;;;4990162;28;20187;-82
2022/08/31 04:37:22;;;;;;;13.33;12.43;;;19.20;99.90;;;;;;4996046;28;20191;-81
2022/08/31 04:39:48;;;;;;;13.80;12.77;;;19.20;99.90;;;;;;4996572;28;20212;-82
2022/08/31 04:42:14;;;;;;;14.67;13.67;;;19.20;99.90;;;;;;4993791;28;20179;-81
2022/08/31 04:44:40;;;;;;;15.47;13.97;;;19.10;99.90;;;;;;4996083;28;20593;-83
2022/08/31 04:47:07;;;;;;;62.27;58.47;;;19.10;99.90;;;;;;4995661;28;20272;-83
2022/08/31 04:49:32;;;;;;;174.53;164.77;;;19.10;99.90;;;;;;4997479;28;20212;-81
2022/08/31 04:51:58;;;;;;;241.57;227.90;;;19.10;99.90;;;;;;4996788;28;20200;-83
2022/08/31 04:54:24;;;;;;;313.27;295.30;;;19.10;99.90;;;;;;5001234;28;20211;-82
2022/08/31 04:56:50;;;;;;;326.67;308.27;;;19.20;99.90;;;;;;4997851;28;20212;-84
2022/08/31 04:59:17;;;;;;;353.17;333.60;;;19.10;99.90;;;;;;4989537;28;20701;-84
2022/08/31 05:01:44;;;;;;;246.63;233.07;;;19.10;99.90;;;;;;4977282;28;20600;-83
2022/08/31 05:04:13;;;;;;;197.97;187.23;;;19.00;99.90;;;;;;4980175;28;20176;-81
2022/08/31 05:06:41;;;;;;;178.80;169.10;;;19.00;99.90;;;;;;4996989;28;20252;-80
2022/08/31 05:09:10;;;;;;;191.27;181.00;;;19.00;99.90;;;;;;5001967;28;20188;-80
2022/08/31 05:11:37;;;;;;;222.07;210.27;;;19.00;99.90;;;;;;4995487;28;20299;-81
2022/08/31 05:14:04;;;;;;;244.40;231.43;;;19.00;99.90;;;;;;4996360;28;20184;-80
2022/08/31 05:16:32;;;;;;;285.63;270.53;;;19.00;99.90;;;;;;4996038;28;20605;-80
2022/08/31 05:18:59;;;;;;;249.00;235.90;;;19.00;99.90;;;;;;4978159;28;20259;-80
2022/08/31 05:21:32;;;;;;;278.47;263.70;;;19.00;99.90;;;;;;4974904;28;20229;-80
2022/08/31 05:24:02;;;;;;;298.17;282.40;;;19.00;99.90;;;;;;4975587;28;20185;-82
2022/08/31 05:26:31;;;;;;;264.97;251.33;;;19.10;99.90;;;;;;4986750;28;20851;-79
2022/08/31 05:28:59;;;;;;;288.10;272.93;;;19.10;99.90;;;;;;4988240;28;20185;-80
2022/08/31 05:31:28;;;;;;;291.90;276.53;;;19.10;99.90;;;;;;4989062;28;20204;-79
2022/08/31 05:33:56;;;;;;;251.87;238.57;;;19.10;99.90;;;;;;4978357;28;20177;-82
2022/08/31 05:36:22;;;;;;;248.33;235.40;;;19.10;99.90;;;;;;5003957;28;20376;-79
2022/08/31 05:38:48;;;;;;;261.10;247.68;;;19.10;99.90;;;;;;4996017;28;20368;-80
2022/08/31 05:41:14;;;;;;;262.60;248.73;;;19.10;99.90;;;;;;4996416;28;20228;-80
2022/08/31 05:43:40;;;;;;;223.03;211.33;;;19.00;99.90;;;;;;4995253;28;20239;-80
2022/08/31 05:46:09;;;;;;;211.97;200.67;;;19.00;99.90;;;;;;4995570;28;20176;-77
2022/08/31 05:48:36;;;;;;;202.27;191.27;;;19.00;99.90;;;;;;4988973;28;20188;-81
2022/08/31 05:51:05;;;;;;;224.27;212.47;;;19.00;99.90;;;;;;4991643;28;20238;-83
2022/08/31 05:53:32;;;;;;;195.50;185.10;;;19.00;99.90;;;;;;4993226;28;20268;-80
2022/08/31 05:56:09;;;;;;;238.37;225.67;;;19.10;99.90;;;;;;4975448;28;20546;-80
2022/08/31 05:58:37;;;;;;;244.07;231.07;;;19.10;99.90;;;;;;4990436;28;20215;-73
2022/08/31 06:01:10;;;;;;;279.50;264.63;;;19.10;99.90;;;;;;4989517;28;20197;-73
2022/08/31 06:03:36;;;;;;;291.00;275.80;;;19.10;99.90;;;;;;4972246;28;20657;-72
2022/08/31 06:06:02;;;;;;;285.53;269.93;;;19.10;99.90;;;;;;4969250;28;20185;-72
2022/08/31 06:08:28;;;;;;;294.73;279.13;;;19.20;99.90;;;;;;4969419;28;20196;-73
2022/08/31 06:10:58;;;;;;;274.10;259.50;;;19.20;99.90;;;;;;4971421;28;20201;-72
2022/08/31 06:13:25;;;;;;;257.93;244.43;;;19.20;99.90;;;;;;4971341;28;20236;-73
2022/08/31 06:15:52;;;;;;;237.90;225.40;;;19.30;99.90;;;;;;4983975;28;20563;-73
2022/08/31 06:18:19;;;;;;;238.63;223.73;;;19.40;99.90;;;;;;4988670;28;20188;-71
2022/08/31 06:20:46;;;;;;;169.03;160.20;;;19.50;99.90;;;;;;4993996;28;20204;-71
2022/08/31 06:23:12;;;;;;;129.53;122.67;;;19.60;99.90;;;;;;4994049;28;20177;-72
2022/08/31 06:25:38;;;;;;;84.03;79.50;;;19.70;99.90;;;;;;4977559;28;20187;-72
2022/08/31 06:28:06;;;;;;;45.10;42.55;;;19.70;99.90;;;;;;4993223;28;20856;-72
2022/08/31 06:30:38;;;;;;;33.57;31.53;;;19.70;99.90;;;;;;4993522;28;20192;-72
2022/08/31 06:33:05;;;;;;;39.40;36.87;;;19.70;99.90;;;;;;4996331;28;20190;-72
2022/08/31 06:35:31;;;;;;;30.15;27.98;;;19.70;99.90;;;;;;4994513;28;20187;-72
2022/08/31 06:37:58;;;;;;;16.20;14.97;;;19.70;99.90;;;;;;4992956;28;20267;-71
2022/08/31 06:40:25;;;;;;;24.00;22.20;;;19.70;99.90;;;;;;4992904;28;20223;-72
2022/08/31 06:42:51;;;;;;;36.38;33.58;;;19.70;99.90;;;;;;4993850;28;20550;-71
2022/08/31 06:45:17;;;;;;;58.00;54.63;;;19.60;99.90;;;;;;4994403;28;20181;-71
2022/08/31 06:47:43;;;;;;;96.50;91.27;;;19.60;99.90;;;;;;4993666;28;20599;-71
2022/08/31 06:50:11;;;;;;;108.10;101.77;;;19.60;99.90;;;;;;4993003;28;20219;-71
2022/08/31 06:52:36;;;;;;;69.22;65.18;;;19.60;99.90;;;;;;4994278;28;20199;-71
2022/08/31 06:55:03;;;;;;;69.03;65.13;;;19.60;99.90;;;;;;4994236;28;20188;-71
2022/08/31 06:57:29;;;;;;;54.30;51.10;;;19.70;99.90;;;;;;4992871;28;20540;-71
2022/08/31 06:59:55;;;;;;;108.47;102.33;;;19.70;99.90;;;;;;4994085;28;20219;-72
2022/08/31 07:02:21;;;;;;;132.13;125.03;;;19.60;99.90;;;;;;4993329;28;20223;-72
2022/08/31 07:04:46;;;;;;;145.32;137.27;;;19.60;99.90;;;;;;4993419;28;20191;-72
2022/08/31 07:07:13;;;;;;;103.53;97.40;;;19.60;99.90;;;;;;4976077;28;20200;-71
2022/08/31 07:09:40;;;;;;;86.05;80.95;;;19.70;99.90;;;;;;4993539;28;20184;-70
2022/08/31 07:12:06;;;;;;;71.32;67.10;;;19.70;99.90;;;;;;4993052;28;20180;-70
2022/08/31 07:14:31;;;;;;;72.83;68.63;;;19.70;99.90;;;;;;4993984;28;20349;-69
2022/08/31 07:17:01;;;;;;;55.08;51.72;;;19.70;99.90;;;;;;4993121;28;20267;-70
2022/08/31 07:19:27;;;;;;;55.00;51.72;;;19.70;99.90;;;;;;4993023;28;20270;-68
2022/08/31 07:21:56;;;;;;;72.30;68.18;;;19.70;99.90;;;;;;4993448;28;20196;-68
2022/08/31 07:24:29;;;;;;;75.60;71.43;;;19.80;99.90;;;;;;4993859;28;20250;-69
2022/08/31 07:27:08;;;;;;;49.30;46.35;;;19.80;99.90;;;;;;4992432;28;20185;-71
2022/08/31 07:29:39;;;;;;;43.50;40.63;;;19.80;99.90;;;;;;4993052;28;20246;-71
2022/08/31 07:32:13;;;;;;;74.72;70.55;;;19.90;99.90;;;;;;4992412;28;20552;-71
2022/08/31 07:34:40;;;;;;;33.28;30.95;;;19.80;99.90;;;;;;4993061;28;20656;-71
2022/08/31 07:42:42;;;;;;;14.40;12.97;;;19.90;99.90;;;;;;4993366;28;20360;-71
2022/08/31 07:45:12;;;;;;;19.10;17.63;;;20.00;99.90;;;;;;4993348;28;20180;-71
2022/08/31 07:47:45;;;;;;;13.73;12.20;;;20.00;99.90;;;;;;4992075;28;20199;-71
2022/08/31 07:50:13;;;;;;;13.07;12.05;;;20.00;99.90;;;;;;4993024;28;20219;-71
2022/08/31 07:52:47;;;;;;;13.55;12.05;;;20.00;99.90;;;;;;4992998;28;20195;-71
2022/08/31 07:55:15;;;;;;;16.50;15.35;;;20.10;99.90;;;;;;4992534;28;20188;-71
2022/08/31 07:57:42;;;;;;;20.95;19.23;;;20.20;99.90;;;;;;4975218;28;20185;-71
2022/08/31 08:00:16;;;;;;;21.27;19.77;;;20.20;99.90;;;;;;4993152;28;20216;-71
2022/08/31 08:02:45;;;;;;;17.55;16.27;;;20.20;99.90;;;;;;4992258;28;20216;-71
2022/08/31 08:05:19;;;;;;;104.43;18.25;;;20.20;99.90;;;;;;4993371;28;20571;-72
2022/08/31 08:07:48;;;;;;;14.20;13.10;;;20.30;99.90;;;;;;4992439;28;20179;-71
2022/08/31 08:10:17;;;;;;;17.88;16.23;;;20.30;99.90;;;;;;5007284;28;20223;-73
2022/08/31 08:12:47;;;;;;;20.17;18.77;;;20.40;99.90;;;;;;4992663;28;20188;-72
2022/08/31 08:15:14;;;;;;;36.58;33.80;;;20.40;99.90;;;;;;4992629;28;20669;-71
2022/08/31 08:17:40;;;;;;;41.28;38.88;;;20.50;99.90;;;;;;4992118;28;20676;-71
2022/08/31 08:20:07;;;;;;;48.80;46.00;;;20.70;99.90;;;;;;4993257;28;20597;-71
2022/08/31 08:22:38;;;;;;;50.97;47.85;;;20.70;99.90;;;;;;4975327;28;20188;-71
2022/08/31 08:25:06;;;;;;;39.53;37.17;;;20.80;99.90;;;;;;4992216;28;20187;-71
2022/08/31 08:27:32;;;;;;;52.30;49.30;;;20.90;99.90;;;;;;4991750;28;20180;-71
2022/08/31 08:29:59;;;;;;;47.10;44.20;;;20.90;99.90;;;;;;4974582;28;20291;-71
2022/08/31 08:32:24;;;;;;;35.47;33.08;;;21.00;99.90;;;;;;4974166;28;20725;-71
2022/08/31 08:34:51;;;;;;;22.05;20.23;;;20.90;99.90;;;;;;4992716;28;20546;-71
2022/08/31 08:37:16;;;;;;;13.63;12.45;;;20.90;99.90;;;;;;4991582;28;20727;-71
2022/08/31 08:39:43;;;;;;;17.88;16.58;;;20.90;99.90;;;;;;4990473;28;20216;-71
2022/08/31 08:42:12;;;;;;;14.15;11.90;;;21.00;99.90;;;;;;4991527;28;20823;-71
2022/08/31 08:44:39;;;;;;;13.90;12.70;;;21.00;99.90;;;;;;4992275;28;20267;-71
2022/08/31 08:47:14;;;;;;;13.57;12.45;;;21.00;99.90;;;;;;4990862;28;20218;-71
2022/08/31 08:49:49;;;;;;;13.77;11.30;;;20.80;99.90;;;;;;4992762;28;20222;-71
2022/08/31 08:52:31;;;;;;;12.25;11.15;;;20.90;99.90;;;;;;4990006;28;20196;-72
2022/08/31 08:55:03;;;;;;;11.60;10.55;;;20.80;99.90;;;;;;4990591;28;20251;-71
2022/08/31 08:57:35;;;;;;;11.55;9.25;;;20.80;99.90;;;;;;4991076;28;20750;-72
2022/08/31 09:00:09;;;;;;;9.88;8.93;;;20.90;99.90;;;;;;4991826;28;20224;-72
2022/08/31 09:02:38;;;;;;;10.20;9.38;;;20.90;99.90;;;;;;4993094;28;20187;-71
2022/08/31 09:05:29;;;;;;;11.20;10.27;;;20.80;99.90;;;;;;4991958;28;20176;-71
2022/08/31 09:08:33;;;;;;;10.48;9.45;;;20.80;99.90;;;;;;4973741;28;20184;-72
2022/08/31 09:11:08;;;;;;;9.98;8.70;;;20.70;99.90;;;;;;4990867;28;20723;-72
2022/08/31 09:14:04;;;;;;;9.30;8.48;;;20.60;99.90;;;;;;4974598;28;20266;-72
2022/08/31 09:16:56;;;;;;;11.68;9.40;;;20.60;99.90;;;;;;4991699;28;20638;-72
2022/08/31 09:19:22;;;;;;;8.63;7.77;;;20.70;99.90;;;;;;4991564;28;20696;-72
2022/08/31 09:21:55;;;;;;;10.37;9.43;;;20.90;99.90;;;;;;4991410;28;20356;-71
2022/08/31 09:24:26;;;;;;;10.32;9.63;;;21.00;99.90;;;;;;4990521;28;20743;-71
2022/08/31 09:27:17;;;;;;;11.40;10.32;;;21.20;99.90;;;;;;4990992;28;20180;-72
2022/08/31 09:29:53;;;;;;;10.27;9.40;;;21.20;99.90;;;;;;4991560;28;20189;-72
2022/08/31 09:32:28;;;;;;;9.30;8.65;;;21.40;99.90;;;;;;4991325;28;20184;-72
2022/08/31 09:35:02;;;;;;;18.90;17.75;;;21.50;99.90;;;;;;4991160;28;20648;-73
2022/08/31 09:37:32;;;;;;;107.10;101.57;;;21.80;99.90;;;;;;4973849;28;20195;-71
2022/08/31 09:40:17;;;;;;;101.18;95.47;;;22.00;99.90;;;;;;4990303;28;20660;-73
2022/08/31 09:42:46;;;;;;;60.40;57.10;;;22.40;99.90;;;;;;4991196;28;20267;-72
2022/08/31 09:45:30;;;;;;;91.35;86.57;;;22.80;99.90;;;;;;4991536;28;20567;-73
2022/08/31 09:48:00;;;;;;;38.88;36.45;;;23.30;99.90;;;;;;4990687;28;20181;-72
2022/08/31 09:50:59;;;;;;;24.20;22.50;;;23.80;99.90;;;;;;4974043;28;20299;-72
2022/08/31 09:56:13;;;;;;;72.45;68.63;;;24.70;99.90;;;;;;4991387;28;20615;-73
2022/08/31 09:58:45;;;;;;;68.32;64.30;;;25.10;99.90;;;;;;4990509;28;20204;-73
2022/08/31 10:01:17;;;;;;;49.85;47.25;;;25.00;99.90;;;;;;4970546;28;20208;-72
2022/08/31 10:03:44;;;;;;;53.55;50.10;;;25.00;99.90;;;;;;4972426;28;20604;-71
2022/08/31 10:06:43;;;;;;;48.65;46.15;;;24.90;99.90;;;;;;4971044;28;20180;-71
2022/08/31 10:09:16;;;;;;;39.67;37.53;;;24.80;99.90;;;;;;4971551;28;20232;-72
2022/08/31 10:11:46;;;;;;;42.08;39.85;;;24.90;99.90;;;;;;4978864;28;20254;-72
2022/08/31 10:14:37;;;;;;;12.38;11.25;;;25.30;99.90;;;;;;4991312;28;20191;-72
2022/08/31 10:17:13;;;;;;;7.90;7.10;;;25.50;99.90;;;;;;4990527;28;20188;-72
2022/08/31 10:20:04;;;;;;;8.75;8.05;;;25.40;99.90;;;;;;4991174;28;20239;-73
2022/08/31 10:22:44;;;;;;;13.32;12.20;;;25.70;99.90;;;;;;4991247;28;20219;-75
2022/08/31 10:25:35;;;;;;;10.48;9.82;;;26.20;99.90;;;;;;4991418;28;20664;-71
2022/08/31 10:28:15;;;;;;;12.38;11.48;;;26.30;99.90;;;;;;4988615;28;20654;-70
2022/08/31 10:31:00;;;;;;;12.48;11.45;;;25.90;99.90;;;;;;4990120;28;20204;-70
2022/08/31 10:36:29;;;;;;;13.38;12.38;;;25.60;99.90;;;;;;4991162;28;20184;-71
2022/08/31 10:38:56;;;;;;;11.48;10.40;;;25.90;99.90;;;;;;4990561;28;20218;-69
2022/08/31 10:41:29;;;;;;;12.10;11.10;;;26.30;99.90;;;;;;4973394;28;20196;-69
2022/08/31 10:44:07;;;;;;;12.52;11.50;;;26.20;99.90;;;;;;4991016;28;20941;-70
2022/08/31 10:46:34;;;;;;;15.07;14.05;;;26.00;99.90;;;;;;4990967;28;20188;-70
2022/08/31 10:49:05;;;;;;;12.23;11.18;;;26.00;99.90;;;;;;4990079;28;20191;-69
2022/08/31 10:51:49;;;;;;;15.05;13.93;;;26.00;99.90;;;;;;4989333;28;20222;-70
2022/08/31 10:54:27;;;;;;;17.45;15.85;;;25.80;99.90;;;;;;4990960;28;20804;-70
2022/08/31 10:57:22;;;;;;;15.57;14.55;;;25.70;99.90;;;;;;4990151;28;20211;-71
2022/08/31 11:00:40;;;;;;;12.88;11.88;;;25.90;99.90;;;;;;4990721;28;20216;-70
2022/08/31 11:03:11;;;;;;;14.63;13.63;;;26.20;99.90;;;;;;4990413;28;20188;-70
2022/08/31 11:05:46;;;;;;;10.80;9.88;;;26.40;99.90;;;;;;4992548;28;20188;-71
2022/08/31 11:08:51;;;;;;;11.20;9.30;;;26.40;99.90;;;;;;4993543;28;20187;-70
2022/08/31 11:11:25;;;;;;;14.60;13.52;;;26.00;99.90;;;;;;4993275;28;20693;-70
2022/08/31 11:14:06;;;;;;;15.07;13.90;;;25.70;99.90;;;;;;4993931;28;20176;-71
2022/08/31 11:16:45;;;;;;;12.15;11.15;;;25.10;99.90;;;;;;4994552;28;20204;-70
2022/08/31 11:19:37;;;;;;;17.55;16.42;;;24.50;99.90;;;;;;4994385;28;20212;-70
2022/08/31 11:22:36;;;;;;;30.40;28.45;;;24.10;99.90;;;;;;4993765;28;20189;-70
2022/08/31 11:25:13;;;;;;;40.20;37.88;;;23.80;99.90;;;;;;4958654;28;20411;-70
2022/08/31 11:27:51;;;;;;;33.72;31.88;;;23.50;99.90;;;;;;4993211;28;20267;-70
2022/08/31 11:30:28;;;;;;;33.33;31.40;;;23.40;99.90;;;;;;4993604;28;20207;-70
2022/08/31 11:33:06;;;;;;;27.77;25.55;;;23.40;99.90;;;;;;4993824;28;20275;-70
2022/08/31 11:35:48;;;;;;;24.60;22.80;;;23.30;99.90;;;;;;4993867;28;20188;-70
2022/08/31 11:39:13;;;;;;;15.52;14.43;;;23.10;99.90;;;;;;4992902;28;20279;-69
2022/08/31 11:41:48;;;;;;;11.57;10.63;;;23.00;99.90;;;;;;4894788;29;20214;-69
2022/08/31 11:44:29;;;;;;;10.73;8.93;;;22.90;99.90;;;;;;4895681;29;20217;-69
2022/08/31 11:47:28;;;;;;;11.52;10.50;;;22.70;99.90;;;;;;4970370;28;20184;-69
2022/08/31 11:49:56;;;;;;;14.52;13.25;;;22.70;99.90;;;;;;4975827;28;20192;-69
2022/08/31 11:52:39;;;;;;;27.92;25.85;;;22.70;99.90;;;;;;4993515;28;20188;-70
2022/08/31 11:55:22;;;;;;;17.85;16.48;;;22.80;99.90;;;;;;4993458;28;20180;-70
2022/08/31 11:58:06;;;;;;;26.35;24.55;;;23.10;99.90;;;;;;4992244;28;20180;-70
2022/08/31 12:01:00;;;;;;;11.10;10.10;;;23.30;99.90;;;;;;4993154;28;20234;-70
2022/08/31 12:03:35;;;;;;;12.77;11.48;;;23.30;99.90;;;;;;4991999;28;20188;-70
2022/08/31 12:06:02;;;;;;;10.07;9.20;;;23.20;99.90;;;;;;4993262;28;20294;-69
2022/08/31 12:08:33;;;;;;;14.07;11.40;;;23.10;99.90;;;;;;4992067;28;20204;-69
2022/08/31 12:11:33;;;;;;;14.00;13.00;;;23.30;99.90;;;;;;4993123;28;20201;-69
2022/08/31 12:14:38;;;;;;;18.63;17.25;;;23.40;99.90;;;;;;4992987;28;20184;-70
2022/08/31 12:17:23;;;;;;;23.45;21.58;;;23.50;99.90;;;;;;4991271;28;20187;-70
2022/08/31 12:20:11;;;;;;;23.05;21.25;;;23.60;99.90;;;;;;4992930;28;20241;-70
2022/08/31 12:26:11;;;;;;;27.65;25.90;;;23.40;99.90;;;;;;4993001;28;20192;-74
2022/08/31 12:28:55;;;;;;;28.38;26.58;;;23.50;99.90;;;;;;4991903;28;20184;-71
2022/08/31 12:31:21;;;;;;;30.10;28.13;;;23.70;99.90;;;;;;4976219;28;20200;-70
2022/08/31 12:34:12;;;;;;;33.85;31.77;;;24.00;99.90;;;;;;4965194;28;20188;-70
2022/08/31 12:36:38;;;;;;;31.83;29.67;;;24.20;99.90;;;;;;4974548;28;20275;-70
2022/08/31 12:39:07;;;;;;;28.17;26.25;;;24.60;99.90;;;;;;4991705;28;20227;-70
2022/08/31 12:41:36;;;;;;;22.73;20.98;;;24.70;99.90;;;;;;4971639;28;20597;-70
2022/08/31 12:44:03;;;;;;;25.58;23.98;;;24.90;99.90;;;;;;4973494;28;20202;-71
2022/08/31 12:46:53;;;;;;;18.35;16.52;;;25.20;99.90;;;;;;4973420;28;20200;-70
2022/08/31 12:49:38;;;;;;;14.93;13.70;;;25.50;99.90;;;;;;4986326;28;20605;-71
2022/08/31 12:52:22;;;;;;;16.88;15.63;;;25.80;99.90;;;;;;4992844;28;20282;-70
2022/08/31 12:55:06;;;;;;;17.45;16.17;;;25.70;99.90;;;;;;4992666;28;20722;-70
2022/08/31 12:57:57;;;;;;;14.73;13.48;;;25.80;99.90;;;;;;4973957;28;20680;-71
2022/08/31 13:00:30;;;;;;;11.73;10.60;;;26.30;99.90;;;;;;4992056;28;20251;-70
2022/08/31 13:03:22;;;;;;;9.23;8.52;;;27.30;99.90;;;;;;4974165;28;20184;-70
2022/08/31 13:05:59;;;;;;;9.40;8.60;;;29.00;99.90;;;;;;4992166;28;20185;-71